sensor_id;sensor_type;location;lat;lon;timestamp;temperature;humidity
67862;DHT22;54665;51.462;6.698;2023-07-31T00:00:12;16.07;96.40
67862;DHT22;54665;51.462;6.698;2023-07-31T00:02:12;16.09;96.24
67862;DHT22;54665;51.462;6.698;2023-07-31T00:04:12;16.07;96.43
67862;DHT22;54665;51.462;6.698;2023-07-31T00:06:13;16.12;96.45
67862;DHT22;54665;51.462;6.698;2023-07-31T00:08:13;16.12;96.47
67862;DHT22;54665;51.462;6.698;2023-07-31T00:10:13;16.09;96.30
67862;DHT22;54665;51.462;6.698;2023-07-31T00:12:14;16.06;96.01
67862;DHT22;54665;51.462;6.698;2023-07-31T00:14:14;16.07;96.28
67862;DHT22;54665;51.462;6.698;2023-07-31T00:16:14;16.12;96.41
67862;DHT22;54665;51.462;6.698;2023-07-31T00:18:15;16.09;96.21
67862;DHT22;54665;51.462;6.698;2023-07-31T00:20:15;16.09;96.26
67862;DHT22;54665;51.462;6.698;2023-07-31T00:22:16;16.10;96.31
67862;DHT22;54665;51.462;6.698;2023-07-31T00:24:16;16.10;96.14
67862;DHT22;54665;51.462;6.698;2023-07-31T00:26:16;16.09;95.88
67862;DHT22;54665;51.462;6.698;2023-07-31T00:28:17;16.12;95.86
67862;DHT22;54665;51.462;6.698;2023-07-31T00:30:17;16.09;95.81
67862;DHT22;54665;51.462;6.698;2023-07-31T00:32:17;16.10;95.68
67862;DHT22;54665;51.462;6.698;2023-07-31T00:34:18;16.14;95.23
67862;DHT22;54665;51.462;6.698;2023-07-31T00:36:18;16.14;95.15
67862;DHT22;54665;51.462;6.698;2023-07-31T00:38:18;16.12;95.41
67862;DHT22;54665;51.462;6.698;2023-07-31T00:40:19;16.13;95.04
67862;DHT22;54665;51.462;6.698;2023-07-31T00:42:19;16.14;94.88
67862;DHT22;54665;51.462;6.698;2023-07-31T00:44:19;16.13;95.15
67862;DHT22;54665;51.462;6.698;2023-07-31T00:46:20;16.13;94.94
67862;DHT22;54665;51.462;6.698;2023-07-31T00:48:21;16.14;94.84
67862;DHT22;54665;51.462;6.698;2023-07-31T00:50:25;16.12;95.05
67862;DHT22;54665;51.462;6.698;2023-07-31T00:52:25;16.12;94.99
67862;DHT22;54665;51.462;6.698;2023-07-31T00:54:26;16.13;95.25
67862;DHT22;54665;51.462;6.698;2023-07-31T00:56:27;16.14;94.81
67862;DHT22;54665;51.462;6.698;2023-07-31T00:58:28;16.13;94.99
67862;DHT22;54665;51.462;6.698;2023-07-31T01:00:28;16.13;95.14
67862;DHT22;54665;51.462;6.698;2023-07-31T01:02:30;16.13;94.99
67862;DHT22;54665;51.462;6.698;2023-07-31T01:04:31;16.13;94.65
67862;DHT22;54665;51.462;6.698;2023-07-31T01:06:37;16.14;94.72
67862;DHT22;54665;51.462;6.698;2023-07-31T01:08:44;16.16;94.21
67862;DHT22;54665;51.462;6.698;2023-07-31T01:11:04;16.13;94.58
67862;DHT22;54665;51.462;6.698;2023-07-31T01:13:08;16.10;94.78
67862;DHT22;54665;51.462;6.698;2023-07-31T01:15:09;16.07;95.03
67862;DHT22;54665;51.462;6.698;2023-07-31T01:17:09;16.10;94.44
67862;DHT22;54665;51.462;6.698;2023-07-31T01:19:10;16.12;94.74
67862;DHT22;54665;51.462;6.698;2023-07-31T01:28:13;16.07;94.53
67862;DHT22;54665;51.462;6.698;2023-07-31T01:30:21;16.03;94.67
67862;DHT22;54665;51.462;6.698;2023-07-31T01:32:22;15.99;94.71
67862;DHT22;54665;51.462;6.698;2023-07-31T01:34:23;16.02;94.65
67862;DHT22;54665;51.462;6.698;2023-07-31T01:36:24;15.96;94.15
67862;DHT22;54665;51.462;6.698;2023-07-31T01:38:25;16.03;94.08
67862;DHT22;54665;51.462;6.698;2023-07-31T01:40:25;16.02;93.71
67862;DHT22;54665;51.462;6.698;2023-07-31T01:42:25;15.99;93.79
67862;DHT22;54665;51.462;6.698;2023-07-31T01:44:26;15.99;94.10
67862;DHT22;54665;51.462;6.698;2023-07-31T01:46:26;16.00;93.34
67862;DHT22;54665;51.462;6.698;2023-07-31T01:48:26;16.02;93.31
67862;DHT22;54665;51.462;6.698;2023-07-31T01:50:27;15.99;93.55
67862;DHT22;54665;51.462;6.698;2023-07-31T01:52:27;15.96;94.34
67862;DHT22;54665;51.462;6.698;2023-07-31T01:54:27;15.96;93.39
67862;DHT22;54665;51.462;6.698;2023-07-31T01:56:28;15.95;93.71
67862;DHT22;54665;51.462;6.698;2023-07-31T01:58:28;15.97;93.03
67862;DHT22;54665;51.462;6.698;2023-07-31T02:00:28;15.93;93.67
67862;DHT22;54665;51.462;6.698;2023-07-31T02:02:29;15.97;93.02
67862;DHT22;54665;51.462;6.698;2023-07-31T02:04:29;15.95;93.72
67862;DHT22;54665;51.462;6.698;2023-07-31T02:06:29;15.92;93.32
67862;DHT22;54665;51.462;6.698;2023-07-31T02:08:30;15.90;93.37
67862;DHT22;54665;51.462;6.698;2023-07-31T02:10:30;15.93;93.35
67862;DHT22;54665;51.462;6.698;2023-07-31T02:12:30;15.90;93.07
67862;DHT22;54665;51.462;6.698;2023-07-31T02:14:30;15.93;93.56
67862;DHT22;54665;51.462;6.698;2023-07-31T02:16:31;15.92;93.38
67862;DHT22;54665;51.462;6.698;2023-07-31T02:18:31;15.92;93.05
67862;DHT22;54665;51.462;6.698;2023-07-31T02:20:34;15.93;92.63
67862;DHT22;54665;51.462;6.698;2023-07-31T02:22:36;16.00;92.32
67862;DHT22;54665;51.462;6.698;2023-07-31T02:24:36;15.97;92.00
67862;DHT22;54665;51.462;6.698;2023-07-31T02:26:37;15.96;92.26
67862;DHT22;54665;51.462;6.698;2023-07-31T02:28:37;15.96;92.17
67862;DHT22;54665;51.462;6.698;2023-07-31T02:30:38;15.99;92.56
67862;DHT22;54665;51.462;6.698;2023-07-31T02:32:38;15.96;92.83
67862;DHT22;54665;51.462;6.698;2023-07-31T02:34:38;15.93;92.71
67862;DHT22;54665;51.462;6.698;2023-07-31T02:36:39;15.93;92.74
67862;DHT22;54665;51.462;6.698;2023-07-31T02:38:39;15.96;92.07
67862;DHT22;54665;51.462;6.698;2023-07-31T02:40:40;15.96;92.20
67862;DHT22;54665;51.462;6.698;2023-07-31T02:42:40;15.93;93.07
67862;DHT22;54665;51.462;6.698;2023-07-31T02:44:41;15.92;92.72
67862;DHT22;54665;51.462;6.698;2023-07-31T02:46:41;15.95;92.41
67862;DHT22;54665;51.462;6.698;2023-07-31T02:48:41;15.95;92.44
67862;DHT22;54665;51.462;6.698;2023-07-31T02:50:42;16.00;91.55
67862;DHT22;54665;51.462;6.698;2023-07-31T02:52:42;15.97;91.94
67862;DHT22;54665;51.462;6.698;2023-07-31T02:54:43;15.96;91.69
67862;DHT22;54665;51.462;6.698;2023-07-31T02:56:43;16.05;91.29
67862;DHT22;54665;51.462;6.698;2023-07-31T02:58:44;16.05;91.54
67862;DHT22;54665;51.462;6.698;2023-07-31T03:00:45;16.06;91.46
67862;DHT22;54665;51.462;6.698;2023-07-31T03:02:45;16.02;91.97
67862;DHT22;54665;51.462;6.698;2023-07-31T03:04:45;16.03;92.08
67862;DHT22;54665;51.462;6.698;2023-07-31T03:06:46;16.00;91.90
67862;DHT22;54665;51.462;6.698;2023-07-31T03:08:46;15.96;93.02
67862;DHT22;54665;51.462;6.698;2023-07-31T03:10:46;15.95;92.45
67862;DHT22;54665;51.462;6.698;2023-07-31T03:12:47;15.95;92.75
67862;DHT22;54665;51.462;6.698;2023-07-31T03:14:47;15.92;93.00
67862;DHT22;54665;51.462;6.698;2023-07-31T03:16:48;15.96;92.68
67862;DHT22;54665;51.462;6.698;2023-07-31T03:18:48;15.96;92.74
67862;DHT22;54665;51.462;6.698;2023-07-31T03:20:48;15.96;92.70
67862;DHT22;54665;51.462;6.698;2023-07-31T03:22:50;16.00;92.56
67862;DHT22;54665;51.462;6.698;2023-07-31T03:24:50;15.97;92.87
67862;DHT22;54665;51.462;6.698;2023-07-31T03:26:51;15.95;92.99
67862;DHT22;54665;51.462;6.698;2023-07-31T03:28:51;16.00;93.18
67862;DHT22;54665;51.462;6.698;2023-07-31T03:30:52;15.99;93.11
67862;DHT22;54665;51.462;6.698;2023-07-31T03:32:53;16.03;92.69
67862;DHT22;54665;51.462;6.698;2023-07-31T03:34:53;16.06;92.58
67862;DHT22;54665;51.462;6.698;2023-07-31T03:36:54;16.03;92.81
67862;DHT22;54665;51.462;6.698;2023-07-31T03:38:54;16.06;92.87
67862;DHT22;54665;51.462;6.698;2023-07-31T03:40:54;16.07;93.05
67862;DHT22;54665;51.462;6.698;2023-07-31T03:42:55;16.07;92.71
67862;DHT22;54665;51.462;6.698;2023-07-31T03:44:55;16.12;92.53
67862;DHT22;54665;51.462;6.698;2023-07-31T03:46:55;16.20;92.47
67862;DHT22;54665;51.462;6.698;2023-07-31T03:48:56;16.26;91.54
67862;DHT22;54665;51.462;6.698;2023-07-31T03:50:56;16.30;91.70
67862;DHT22;54665;51.462;6.698;2023-07-31T03:52:57;16.36;91.40
67862;DHT22;54665;51.462;6.698;2023-07-31T03:54:57;16.41;91.20
67862;DHT22;54665;51.462;6.698;2023-07-31T03:56:58;16.36;91.88
67862;DHT22;54665;51.462;6.698;2023-07-31T03:58:58;16.36;91.46
67862;DHT22;54665;51.462;6.698;2023-07-31T04:00:59;16.36;92.18
67862;DHT22;54665;51.462;6.698;2023-07-31T04:02:59;16.38;92.15
67862;DHT22;54665;51.462;6.698;2023-07-31T04:04:59;16.40;92.02
67862;DHT22;54665;51.462;6.698;2023-07-31T04:07:00;16.36;91.63
67862;DHT22;54665;51.462;6.698;2023-07-31T04:09:00;16.36;92.12
67862;DHT22;54665;51.462;6.698;2023-07-31T04:11:00;16.33;92.48
67862;DHT22;54665;51.462;6.698;2023-07-31T04:13:00;16.38;92.16
67862;DHT22;54665;51.462;6.698;2023-07-31T04:15:01;16.34;92.55
67862;DHT22;54665;51.462;6.698;2023-07-31T04:17:01;16.34;92.31
67862;DHT22;54665;51.462;6.698;2023-07-31T04:19:01;16.33;92.08
67862;DHT22;54665;51.462;6.698;2023-07-31T04:21:02;16.34;92.23
67862;DHT22;54665;51.462;6.698;2023-07-31T04:23:02;16.37;92.26
67862;DHT22;54665;51.462;6.698;2023-07-31T04:25:02;16.38;92.31
67862;DHT22;54665;51.462;6.698;2023-07-31T04:27:03;16.43;92.18
67862;DHT22;54665;51.462;6.698;2023-07-31T04:29:03;16.43;92.36
67862;DHT22;54665;51.462;6.698;2023-07-31T04:31:04;16.40;91.80
67862;DHT22;54665;51.462;6.698;2023-07-31T04:33:04;16.44;92.18
67862;DHT22;54665;51.462;6.698;2023-07-31T04:35:05;16.47;92.24
67862;DHT22;54665;51.462;6.698;2023-07-31T04:37:05;16.48;92.21
67862;DHT22;54665;51.462;6.698;2023-07-31T04:39:05;16.53;92.14
67862;DHT22;54665;51.462;6.698;2023-07-31T04:41:06;16.55;91.54
67862;DHT22;54665;51.462;6.698;2023-07-31T04:43:06;16.61;91.68
67862;DHT22;54665;51.462;6.698;2023-07-31T04:45:08;16.63;92.32
67862;DHT22;54665;51.462;6.698;2023-07-31T04:47:09;16.65;91.95
67862;DHT22;54665;51.462;6.698;2023-07-31T04:49:11;16.64;91.26
67862;DHT22;54665;51.462;6.698;2023-07-31T04:51:11;16.72;91.93
67862;DHT22;54665;51.462;6.698;2023-07-31T04:53:11;16.74;91.41
67862;DHT22;54665;51.462;6.698;2023-07-31T04:55:12;16.72;91.83
67862;DHT22;54665;51.462;6.698;2023-07-31T04:57:12;16.69;91.47
67862;DHT22;54665;51.462;6.698;2023-07-31T04:59:12;16.71;91.52
67862;DHT22;54665;51.462;6.698;2023-07-31T05:01:13;16.71;91.37
67862;DHT22;54665;51.462;6.698;2023-07-31T05:03:13;16.71;91.79
67862;DHT22;54665;51.462;6.698;2023-07-31T05:05:13;16.72;91.92
67862;DHT22;54665;51.462;6.698;2023-07-31T05:07:14;16.72;92.01
67862;DHT22;54665;51.462;6.698;2023-07-31T05:09:14;16.71;92.08
67862;DHT22;54665;51.462;6.698;2023-07-31T05:11:14;16.69;91.83
67862;DHT22;54665;51.462;6.698;2023-07-31T05:13:14;16.72;91.97
67862;DHT22;54665;51.462;6.698;2023-07-31T05:15:15;16.72;92.08
67862;DHT22;54665;51.462;6.698;2023-07-31T05:17:15;16.69;92.23
67862;DHT22;54665;51.462;6.698;2023-07-31T05:19:15;16.69;91.95
67862;DHT22;54665;51.462;6.698;2023-07-31T05:21:16;16.71;92.01
67862;DHT22;54665;51.462;6.698;2023-07-31T05:23:16;16.71;91.89
67862;DHT22;54665;51.462;6.698;2023-07-31T05:25:16;16.72;92.14
67862;DHT22;54665;51.462;6.698;2023-07-31T05:27:17;16.72;92.22
67862;DHT22;54665;51.462;6.698;2023-07-31T05:29:17;16.71;92.07
67862;DHT22;54665;51.462;6.698;2023-07-31T05:31:17;16.77;91.78
67862;DHT22;54665;51.462;6.698;2023-07-31T05:33:17;16.74;92.05
67862;DHT22;54665;51.462;6.698;2023-07-31T05:35:18;16.78;92.06
67862;DHT22;54665;51.462;6.698;2023-07-31T05:37:18;16.75;92.16
67862;DHT22;54665;51.462;6.698;2023-07-31T05:39:18;16.71;92.46
67862;DHT22;54665;51.462;6.698;2023-07-31T05:41:19;16.71;92.36
67862;DHT22;54665;51.462;6.698;2023-07-31T05:43:19;16.72;92.69
67862;DHT22;54665;51.462;6.698;2023-07-31T05:45:19;16.74;92.42
67862;DHT22;54665;51.462;6.698;2023-07-31T05:47:20;16.71;92.36
67862;DHT22;54665;51.462;6.698;2023-07-31T05:49:20;16.78;92.23
67862;DHT22;54665;51.462;6.698;2023-07-31T05:51:20;16.81;92.48
67862;DHT22;54665;51.462;6.698;2023-07-31T05:53:20;16.81;92.42
67862;DHT22;54665;51.462;6.698;2023-07-31T05:55:21;16.82;92.14
67862;DHT22;54665;51.462;6.698;2023-07-31T05:57:21;16.88;92.03
67862;DHT22;54665;51.462;6.698;2023-07-31T05:59:22;16.89;91.74
67862;DHT22;54665;51.462;6.698;2023-07-31T06:01:22;16.96;91.89
67862;DHT22;54665;51.462;6.698;2023-07-31T06:03:22;16.99;92.26
67862;DHT22;54665;51.462;6.698;2023-07-31T06:05:23;16.99;91.79
67862;DHT22;54665;51.462;6.698;2023-07-31T06:07:23;16.99;91.91
67862;DHT22;54665;51.462;6.698;2023-07-31T06:09:23;17.02;91.82
67862;DHT22;54665;51.462;6.698;2023-07-31T06:11:24;17.01;91.99
67862;DHT22;54665;51.462;6.698;2023-07-31T06:13:24;16.99;92.24
67862;DHT22;54665;51.462;6.698;2023-07-31T06:15:25;16.94;92.62
67862;DHT22;54665;51.462;6.698;2023-07-31T06:17:25;16.94;92.50
67862;DHT22;54665;51.462;6.698;2023-07-31T06:19:26;16.89;92.48
67862;DHT22;54665;51.462;6.698;2023-07-31T06:21:26;16.89;92.99
67862;DHT22;54665;51.462;6.698;2023-07-31T06:23:26;16.85;93.04
67862;DHT22;54665;51.462;6.698;2023-07-31T06:25:27;16.82;93.52
67862;DHT22;54665;51.462;6.698;2023-07-31T06:27:27;16.81;93.36
67862;DHT22;54665;51.462;6.698;2023-07-31T06:29:27;16.88;93.41
67862;DHT22;54665;51.462;6.698;2023-07-31T06:31:27;16.89;93.32
67862;DHT22;54665;51.462;6.698;2023-07-31T06:33:28;16.91;93.72
67862;DHT22;54665;51.462;6.698;2023-07-31T06:35:28;16.85;93.40
67862;DHT22;54665;51.462;6.698;2023-07-31T06:37:28;16.87;93.53
67862;DHT22;54665;51.462;6.698;2023-07-31T06:39:29;16.87;93.57
67862;DHT22;54665;51.462;6.698;2023-07-31T06:41:29;16.89;93.60
67862;DHT22;54665;51.462;6.698;2023-07-31T06:43:29;16.91;93.72
67862;DHT22;54665;51.462;6.698;2023-07-31T06:45:29;16.95;93.51
67862;DHT22;54665;51.462;6.698;2023-07-31T06:47:30;16.99;93.79
67862;DHT22;54665;51.462;6.698;2023-07-31T06:49:30;16.96;93.54
67862;DHT22;54665;51.462;6.698;2023-07-31T06:51:30;16.94;93.79
67862;DHT22;54665;51.462;6.698;2023-07-31T06:53:31;16.89;93.60
67862;DHT22;54665;51.462;6.698;2023-07-31T06:55:31;16.87;93.64
67862;DHT22;54665;51.462;6.698;2023-07-31T06:57:31;16.82;93.77
67862;DHT22;54665;51.462;6.698;2023-07-31T06:59:32;16.82;93.67
67862;DHT22;54665;51.462;6.698;2023-07-31T07:01:32;16.82;93.95
67862;DHT22;54665;51.462;6.698;2023-07-31T07:03:32;16.78;94.21
67862;DHT22;54665;51.462;6.698;2023-07-31T07:05:32;16.77;93.83
67862;DHT22;54665;51.462;6.698;2023-07-31T07:07:33;16.78;94.23
67862;DHT22;54665;51.462;6.698;2023-07-31T07:09:33;16.78;94.33
67862;DHT22;54665;51.462;6.698;2023-07-31T07:11:34;16.77;93.97
67862;DHT22;54665;51.462;6.698;2023-07-31T07:13:34;16.82;94.21
67862;DHT22;54665;51.462;6.698;2023-07-31T07:15:34;16.87;94.34
67862;DHT22;54665;51.462;6.698;2023-07-31T07:17:35;16.87;94.31
67862;DHT22;54665;51.462;6.698;2023-07-31T07:19:35;16.85;94.17
67862;DHT22;54665;51.462;6.698;2023-07-31T07:21:35;16.84;94.43
67862;DHT22;54665;51.462;6.698;2023-07-31T07:23:36;16.85;94.67
67862;DHT22;54665;51.462;6.698;2023-07-31T07:25:37;16.81;94.35
67862;DHT22;54665;51.462;6.698;2023-07-31T07:27:38;16.79;94.38
67862;DHT22;54665;51.462;6.698;2023-07-31T07:29:38;16.84;94.57
67862;DHT22;54665;51.462;6.698;2023-07-31T07:31:38;16.84;94.59
67862;DHT22;54665;51.462;6.698;2023-07-31T07:33:39;16.91;94.57
67862;DHT22;54665;51.462;6.698;2023-07-31T07:35:39;16.94;94.55
67862;DHT22;54665;51.462;6.698;2023-07-31T07:37:39;16.82;93.75
67862;DHT22;54665;51.462;6.698;2023-07-31T07:39:41;16.81;94.21
67862;DHT22;54665;51.462;6.698;2023-07-31T07:41:41;16.81;94.33
67862;DHT22;54665;51.462;6.698;2023-07-31T07:43:41;16.77;94.30
67862;DHT22;54665;51.462;6.698;2023-07-31T07:45:41;16.77;94.48
67862;DHT22;54665;51.462;6.698;2023-07-31T07:47:42;16.68;94.74
67862;DHT22;54665;51.462;6.698;2023-07-31T07:49:42;16.71;94.43
67862;DHT22;54665;51.462;6.698;2023-07-31T07:51:42;16.58;94.41
67862;DHT22;54665;51.462;6.698;2023-07-31T07:53:43;16.57;94.65
67862;DHT22;54665;51.462;6.698;2023-07-31T07:55:43;16.51;94.43
67862;DHT22;54665;51.462;6.698;2023-07-31T07:57:44;16.60;94.51
67862;DHT22;54665;51.462;6.698;2023-07-31T07:59:44;16.71;94.38
67862;DHT22;54665;51.462;6.698;2023-07-31T08:01:44;16.65;93.96
67862;DHT22;54665;51.462;6.698;2023-07-31T08:03:45;16.78;94.50
67862;DHT22;54665;51.462;6.698;2023-07-31T08:05:45;16.85;93.99
67862;DHT22;54665;51.462;6.698;2023-07-31T08:07:46;16.84;93.83
67862;DHT22;54665;51.462;6.698;2023-07-31T08:09:46;16.79;93.77
67862;DHT22;54665;51.462;6.698;2023-07-31T08:11:46;16.69;93.79
67862;DHT22;54665;51.462;6.698;2023-07-31T08:13:47;16.77;93.96
67862;DHT22;54665;51.462;6.698;2023-07-31T08:15:47;16.65;94.23
67862;DHT22;54665;51.462;6.698;2023-07-31T08:17:47;16.69;94.58
67862;DHT22;54665;51.462;6.698;2023-07-31T08:19:48;16.77;94.65
67862;DHT22;54665;51.462;6.698;2023-07-31T08:21:48;16.87;94.64
67862;DHT22;54665;51.462;6.698;2023-07-31T08:23:48;16.75;94.19
67862;DHT22;54665;51.462;6.698;2023-07-31T08:25:49;16.87;94.82
67862;DHT22;54665;51.462;6.698;2023-07-31T08:27:49;16.91;94.57
67862;DHT22;54665;51.462;6.698;2023-07-31T08:29:51;16.98;94.67
67862;DHT22;54665;51.462;6.698;2023-07-31T08:31:52;17.06;94.47
67862;DHT22;54665;51.462;6.698;2023-07-31T08:33:52;17.05;94.57
67862;DHT22;54665;51.462;6.698;2023-07-31T08:35:52;16.96;93.83
67862;DHT22;54665;51.462;6.698;2023-07-31T08:37:53;16.95;93.97
67862;DHT22;54665;51.462;6.698;2023-07-31T08:39:53;16.98;94.20
67862;DHT22;54665;51.462;6.698;2023-07-31T08:41:58;16.75;93.85
67862;DHT22;54665;51.462;6.698;2023-07-31T08:43:59;16.78;93.74
67862;DHT22;54665;51.462;6.698;2023-07-31T08:46:01;16.88;94.13
67862;DHT22;54665;51.462;6.698;2023-07-31T08:48:02;16.87;94.06
67862;DHT22;54665;51.462;6.698;2023-07-31T08:50:02;16.81;94.12
67862;DHT22;54665;51.462;6.698;2023-07-31T08:52:04;16.88;93.97
67862;DHT22;54665;51.462;6.698;2023-07-31T08:54:04;16.72;93.60
67862;DHT22;54665;51.462;6.698;2023-07-31T08:56:05;16.64;94.01
67862;DHT22;54665;51.462;6.698;2023-07-31T08:58:06;16.67;93.87
67862;DHT22;54665;51.462;6.698;2023-07-31T09:00:08;16.68;94.44
67862;DHT22;54665;51.462;6.698;2023-07-31T09:02:09;16.64;94.21
67862;DHT22;54665;51.462;6.698;2023-07-31T09:04:10;16.69;94.14
67862;DHT22;54665;51.462;6.698;2023-07-31T09:06:13;16.65;94.22
67862;DHT22;54665;51.462;6.698;2023-07-31T09:08:17;16.68;94.25
67862;DHT22;54665;51.462;6.698;2023-07-31T09:10:18;16.75;94.15
67862;DHT22;54665;51.462;6.698;2023-07-31T09:12:18;16.92;94.31
67862;DHT22;54665;51.462;6.698;2023-07-31T09:14:19;16.88;93.91
67862;DHT22;54665;51.462;6.698;2023-07-31T09:16:27;17.22;93.80
67862;DHT22;54665;51.462;6.698;2023-07-31T09:18:27;17.29;93.27
67862;DHT22;54665;51.462;6.698;2023-07-31T09:20:28;17.23;93.56
67862;DHT22;54665;51.462;6.698;2023-07-31T09:22:37;17.32;93.66
67862;DHT22;54665;51.462;6.698;2023-07-31T09:24:38;17.42;93.77
67862;DHT22;54665;51.462;6.698;2023-07-31T09:26:38;17.42;93.47
67862;DHT22;54665;51.462;6.698;2023-07-31T09:28:38;17.45;93.06
67862;DHT22;54665;51.462;6.698;2023-07-31T09:30:49;17.47;93.26
67862;DHT22;54665;51.462;6.698;2023-07-31T09:32:51;17.47;93.01
67862;DHT22;54665;51.462;6.698;2023-07-31T09:34:51;17.39;93.29
67862;DHT22;54665;51.462;6.698;2023-07-31T09:36:52;17.42;93.40
67862;DHT22;54665;51.462;6.698;2023-07-31T09:38:52;17.37;93.31
67862;DHT22;54665;51.462;6.698;2023-07-31T09:40:53;17.42;93.50
67862;DHT22;54665;51.462;6.698;2023-07-31T09:42:56;17.49;93.44
67862;DHT22;54665;51.462;6.698;2023-07-31T09:45:07;17.39;93.03
67862;DHT22;54665;51.462;6.698;2023-07-31T09:47:21;17.46;93.24
67862;DHT22;54665;51.462;6.698;2023-07-31T09:49:25;17.49;92.98
67862;DHT22;54665;51.462;6.698;2023-07-31T09:51:28;17.53;93.16
67862;DHT22;54665;51.462;6.698;2023-07-31T09:53:29;17.57;93.26
67862;DHT22;54665;51.462;6.698;2023-07-31T09:55:29;17.54;93.11
67862;DHT22;54665;51.462;6.698;2023-07-31T09:57:30;17.57;93.43
67862;DHT22;54665;51.462;6.698;2023-07-31T09:59:31;17.46;93.48
67862;DHT22;54665;51.462;6.698;2023-07-31T10:01:32;17.47;93.60
67862;DHT22;54665;51.462;6.698;2023-07-31T10:03:33;17.42;93.26
67862;DHT22;54665;51.462;6.698;2023-07-31T10:05:39;17.32;93.59
67862;DHT22;54665;51.462;6.698;2023-07-31T10:07:42;17.45;93.98
67862;DHT22;54665;51.462;6.698;2023-07-31T10:09:44;17.47;93.78
67862;DHT22;54665;51.462;6.698;2023-07-31T10:11:57;17.37;93.97
67862;DHT22;54665;51.462;6.698;2023-07-31T10:13:59;17.43;93.84
67862;DHT22;54665;51.462;6.698;2023-07-31T10:16:00;17.49;93.79
67862;DHT22;54665;51.462;6.698;2023-07-31T10:18:00;17.53;93.66
67862;DHT22;54665;51.462;6.698;2023-07-31T10:20:02;17.49;93.25
67862;DHT22;54665;51.462;6.698;2023-07-31T10:22:03;17.60;93.53
67862;DHT22;54665;51.462;6.698;2023-07-31T10:24:04;17.66;92.93
67862;DHT22;54665;51.462;6.698;2023-07-31T10:26:05;17.73;92.88
67862;DHT22;54665;51.462;6.698;2023-07-31T10:28:08;18.05;91.95
67862;DHT22;54665;51.462;6.698;2023-07-31T10:30:14;18.18;91.69
67862;DHT22;54665;51.462;6.698;2023-07-31T10:32:16;18.11;91.30
67862;DHT22;54665;51.462;6.698;2023-07-31T10:34:17;18.15;91.40
67862;DHT22;54665;51.462;6.698;2023-07-31T10:36:19;18.28;91.33
67862;DHT22;54665;51.462;6.698;2023-07-31T10:38:19;18.59;91.31
67862;DHT22;54665;51.462;6.698;2023-07-31T10:40:25;18.52;90.59
67862;DHT22;54665;51.462;6.698;2023-07-31T10:42:45;18.58;90.62
67862;DHT22;54665;51.462;6.698;2023-07-31T10:44:49;18.51;91.02
67862;DHT22;54665;51.462;6.698;2023-07-31T10:46:49;18.41;90.05
67862;DHT22;54665;51.462;6.698;2023-07-31T10:49:01;18.25;90.82
67862;DHT22;54665;51.462;6.698;2023-07-31T10:51:10;18.31;90.77
67862;DHT22;54665;51.462;6.698;2023-07-31T10:53:25;18.21;91.05
67862;DHT22;54665;51.462;6.698;2023-07-31T10:55:33;18.04;90.88
67862;DHT22;54665;51.462;6.698;2023-07-31T10:57:35;18.04;91.13
67862;DHT22;54665;51.462;6.698;2023-07-31T10:59:35;18.05;90.64
67862;DHT22;54665;51.462;6.698;2023-07-31T11:01:50;18.19;90.29
67862;DHT22;54665;51.462;6.698;2023-07-31T11:03:51;18.34;90.80
67862;DHT22;54665;51.462;6.698;2023-07-31T11:06:01;18.27;90.44
67862;DHT22;54665;51.462;6.698;2023-07-31T11:10:17;18.38;90.58
67862;DHT22;54665;51.462;6.698;2023-07-31T11:12:17;18.62;90.98
67862;DHT22;54665;51.462;6.698;2023-07-31T11:14:18;18.79;90.42
67862;DHT22;54665;51.462;6.698;2023-07-31T11:16:21;18.51;90.00
67862;DHT22;54665;51.462;6.698;2023-07-31T11:18:21;18.41;90.28
67862;DHT22;54665;51.462;6.698;2023-07-31T11:20:22;18.41;89.85
67862;DHT22;54665;51.462;6.698;2023-07-31T11:22:22;18.37;90.01
67862;DHT22;54665;51.462;6.698;2023-07-31T11:24:23;18.31;90.62
67862;DHT22;54665;51.462;6.698;2023-07-31T11:26:24;18.44;90.82
67862;DHT22;54665;51.462;6.698;2023-07-31T11:28:25;18.34;90.37
67862;DHT22;54665;51.462;6.698;2023-07-31T11:30:25;18.34;91.13
67862;DHT22;54665;51.462;6.698;2023-07-31T11:32:25;18.27;91.77
67862;DHT22;54665;51.462;6.698;2023-07-31T11:34:26;18.25;91.60
67862;DHT22;54665;51.462;6.698;2023-07-31T11:36:26;18.27;91.30
67862;DHT22;54665;51.462;6.698;2023-07-31T11:38:33;18.28;92.02
67862;DHT22;54665;51.462;6.698;2023-07-31T11:40:44;18.25;91.91
67862;DHT22;54665;51.462;6.698;2023-07-31T11:42:44;18.17;91.19
67862;DHT22;54665;51.462;6.698;2023-07-31T11:44:45;18.29;91.58
67862;DHT22;54665;51.462;6.698;2023-07-31T11:46:45;18.51;92.29
67862;DHT22;54665;51.462;6.698;2023-07-31T11:48:45;18.41;91.18
67862;DHT22;54665;51.462;6.698;2023-07-31T11:50:46;18.55;91.22
67862;DHT22;54665;51.462;6.698;2023-07-31T11:52:48;18.72;91.51
67862;DHT22;54665;51.462;6.698;2023-07-31T11:54:50;18.83;91.26
67862;DHT22;54665;51.462;6.698;2023-07-31T11:56:50;18.79;91.29
67862;DHT22;54665;51.462;6.698;2023-07-31T11:58:59;18.56;91.46
67862;DHT22;54665;51.462;6.698;2023-07-31T12:01:00;18.38;91.79
67862;DHT22;54665;51.462;6.698;2023-07-31T12:03:01;18.15;91.64
67862;DHT22;54665;51.462;6.698;2023-07-31T12:05:01;18.08;92.39
67862;DHT22;54665;51.462;6.698;2023-07-31T12:07:02;18.07;92.63
67862;DHT22;54665;51.462;6.698;2023-07-31T12:09:05;18.07;92.28
67862;DHT22;54665;51.462;6.698;2023-07-31T12:11:08;18.02;92.97
67862;DHT22;54665;51.462;6.698;2023-07-31T12:13:23;18.11;92.69
67862;DHT22;54665;51.462;6.698;2023-07-31T12:15:53;18.18;92.28
67862;DHT22;54665;51.462;6.698;2023-07-31T12:17:49;18.45;92.17
67862;DHT22;54665;51.462;6.698;2023-07-31T12:19:49;18.66;91.69
67862;DHT22;54665;51.462;6.698;2023-07-31T12:21:49;18.72;91.74
67862;DHT22;54665;51.462;6.698;2023-07-31T12:23:51;19.02;91.34
67862;DHT22;54665;51.462;6.698;2023-07-31T12:26:12;19.37;90.57
67862;DHT22;54665;51.462;6.698;2023-07-31T12:28:13;20.25;90.04
67862;DHT22;54665;51.462;6.698;2023-07-31T12:30:46;20.61;88.13
67862;DHT22;54665;51.462;6.698;2023-07-31T12:32:46;20.19;87.07
67862;DHT22;54665;51.462;6.698;2023-07-31T12:34:46;19.78;87.23
67862;DHT22;54665;51.462;6.698;2023-07-31T12:36:47;19.32;89.09
67862;DHT22;54665;51.462;6.698;2023-07-31T12:38:48;19.21;89.46
67862;DHT22;54665;51.462;6.698;2023-07-31T12:40:49;19.04;89.29
67862;DHT22;54665;51.462;6.698;2023-07-31T12:42:49;19.10;89.15
67862;DHT22;54665;51.462;6.698;2023-07-31T12:44:50;19.09;90.13
67862;DHT22;54665;51.462;6.698;2023-07-31T12:46:50;19.16;90.15
67862;DHT22;54665;51.462;6.698;2023-07-31T12:48:50;19.11;88.46
67862;DHT22;54665;51.462;6.698;2023-07-31T12:50:51;19.27;89.74
67862;DHT22;54665;51.462;6.698;2023-07-31T12:52:53;19.06;89.62
67862;DHT22;54665;51.462;6.698;2023-07-31T12:54:53;18.96;90.40